Time;durP1;ratioP1;P1;durP2;ratioP2;P2;SDS_P1;SDS_P2;PMS_P1;PMS_P2;Temp;Humidity;BMP_temperature;BMP_pressure;BME280_temperature;BME280_humidity;BME280_pressure;Samples;Min_cycle;Max_cycle;Signal;HPM_P1;HPM_P2
2022/11/04 00:01:51;;;;;;;1.37;1.13;;;;;;;9.22;86.30;94624.13;4955121;29;20205;-83
2022/11/04 00:04:21;;;;;;;1.80;1.10;;;;;;;9.24;86.87;94623.97;4938892;29;20188;-83
2022/11/04 00:06:47;;;;;;;3.03;0.73;;;;;;;9.28;86.02;94626.09;4939332;29;20213;-82
2022/11/04 00:09:19;;;;;;;1.20;1.00;;;;;;;9.21;86.54;94627.69;4956283;28;20613;-83
2022/11/04 00:14:29;;;;;;;0.97;0.90;;;;;;;9.26;86.86;94627.19;4974036;28;20183;-82
2022/11/04 00:30:36;;;;;;;1.23;1.07;;;;;;;9.25;91.20;94665.25;4959386;29;20245;-84
2022/11/04 00:35:49;;;;;;;1.33;0.83;;;;;;;9.14;92.92;94680.31;4958703;29;20192;-83
2022/11/04 00:38:15;;;;;;;2.53;0.90;;;;;;;9.34;92.99;94672.06;4951404;29;20208;-84
2022/11/04 00:40:41;;;;;;;1.53;0.97;;;;;;;9.41;92.66;94681.78;4942964;29;20566;-83
2022/11/04 00:43:06;;;;;;;0.90;0.90;;;;;;;9.41;93.36;94671.41;4959081;29;20189;-84
2022/11/04 00:45:31;;;;;;;1.07;0.80;;;;;;;9.31;94.25;94677.56;4957554;29;20229;-84
2022/11/04 00:47:56;;;;;;;2.67;1.10;;;;;;;9.36;94.71;94685.69;4961042;28;20187;-84
2022/11/04 00:50:22;;;;;;;0.90;0.80;;;;;;;9.41;94.32;94682.59;4957425;29;20220;-83
2022/11/04 00:52:47;;;;;;;1.10;1.00;;;;;;;9.38;94.76;94680.34;4945234;29;20193;-84
2022/11/04 00:55:12;;;;;;;1.03;0.70;;;;;;;9.19;96.88;94684.03;4943158;29;20635;-84
2022/11/04 00:57:38;;;;;;;1.20;1.10;;;;;;;9.31;95.77;94674.97;4943636;29;20247;-84
2022/11/04 01:00:04;;;;;;;2.83;0.90;;;;;;;9.22;95.65;94675.94;4958983;29;20300;-84
2022/11/04 01:02:29;;;;;;;1.33;0.80;;;;;;;9.16;95.65;94673.97;4958257;29;20193;-84
2022/11/04 01:04:54;;;;;;;0.90;0.80;;;;;;;9.15;96.00;94682.72;4941984;29;20196;-84
2022/11/04 01:07:20;;;;;;;1.30;1.20;;;;;;;8.93;95.84;94673.81;4955837;29;20220;-82
2022/11/04 01:09:51;;;;;;;1.00;0.60;;;;;;;8.96;96.15;94681.25;4937285;29;20202;-82
2022/11/04 01:12:16;;;;;;;0.77;0.77;;;;;;;8.85;94.76;94685.91;4955461;29;20212;-83
2022/11/04 01:14:42;;;;;;;1.00;0.73;;;;;;;8.85;93.88;94672.97;4958741;29;20604;-84
2022/11/04 01:17:07;;;;;;;0.70;0.70;;;;;;;8.66;92.32;94667.09;4958295;29;20181;-83
2022/11/04 01:19:33;;;;;;;1.37;0.90;;;;;;;8.83;91.69;94661.94;4958093;29;20232;-83
2022/11/04 01:21:58;;;;;;;0.70;0.70;;;;;;;8.68;92.30;94656.59;4943307;29;20253;-83
2022/11/04 01:24:23;;;;;;;1.53;0.90;;;;;;;8.71;90.86;94648.50;4962879;29;20217;-83
2022/11/04 01:26:48;;;;;;;1.37;0.83;;;;;;;8.72;89.83;94645.75;4946640;29;20234;-83
2022/11/04 01:29:14;;;;;;;1.07;0.90;;;;;;;8.69;89.87;94659.00;4957624;29;20185;-80
2022/11/04 01:31:39;;;;;;;1.47;0.90;;;;;;;8.77;89.33;94659.03;4956244;29;20213;-82
2022/11/04 01:34:04;;;;;;;1.53;1.10;;;;;;;8.80;89.38;94663.88;4955139;29;20248;-82
2022/11/04 01:36:30;;;;;;;1.47;1.00;;;;;;;8.65;89.62;94677.59;4937553;29;20177;-80
2022/11/04 01:38:56;;;;;;;2.37;1.00;;;;;;;8.56;89.81;94675.94;4940194;29;20185;-80
2022/11/04 01:41:26;;;;;;;3.73;1.10;;;;;;;8.70;89.50;94678.75;4940816;29;20197;-81
2022/11/04 01:43:54;;;;;;;2.60;1.00;;;;;;;8.69;89.32;94678.91;4940826;29;20688;-81
2022/11/04 01:46:37;;;;;;;1.33;0.90;;;;;;;8.67;88.36;94673.88;4957182;29;20283;-82
2022/11/04 01:49:16;;;;;;;1.03;0.80;;;;;;;8.71;88.43;94669.19;4939901;29;20197;-81
2022/11/04 01:51:42;;;;;;;0.80;0.80;;;;;;;8.70;88.79;94663.22;4939836;29;20206;-82
2022/11/04 01:54:08;;;;;;;2.00;1.07;;;;;;;8.62;88.70;94654.63;4955938;29;20184;-82
2022/11/04 01:56:33;;;;;;;1.17;0.93;;;;;;;8.55;88.51;94649.25;4954919;29;20285;-83
2022/11/04 01:59:02;;;;;;;0.97;0.87;;;;;;;8.61;87.89;94651.22;4956718;29;20708;-82
2022/11/04 02:01:28;;;;;;;3.03;1.07;;;;;;;8.49;88.67;94644.72;4939665;29;20201;-83
2022/11/04 02:04:24;;;;;;;1.30;0.87;;;;;;;8.54;88.33;94646.81;4960864;29;20193;-83
2022/11/04 02:06:46;;;;;;;2.70;0.90;;;;;;;8.47;88.56;94638.88;4960922;29;20225;-83
2022/11/04 02:09:12;;;;;;;2.37;1.20;;;;;;;8.40;88.55;94620.59;4944856;29;20193;-83
2022/11/04 02:14:21;;;;;;;2.50;0.93;;;;;;;8.36;87.74;94628.81;4960007;29;20192;-82
2022/11/04 02:16:47;;;;;;;2.10;0.93;;;;;;;8.33;87.67;94618.75;4958600;29;20261;-83
2022/11/04 02:19:35;;;;;;;3.43;1.10;;;;;;;8.37;87.84;94623.47;4961992;29;20213;-83
2022/11/04 02:22:43;;;;;;;3.80;0.90;;;;;;;8.28;88.24;94618.41;4959006;29;20239;-83
2022/11/04 02:25:31;;;;;;;1.90;1.00;;;;;;;8.12;88.28;94622.53;4958296;29;20210;-83
2022/11/04 02:28:25;;;;;;;1.97;0.90;;;;;;;8.23;87.85;94619.69;4942752;29;20190;-82
2022/11/04 02:31:13;;;;;;;2.33;1.20;;;;;;;8.20;87.74;94642.44;4958520;29;20241;-83
2022/11/04 02:33:46;;;;;;;5.53;1.10;;;;;;;8.19;88.44;94648.59;4960568;28;20188;-82
2022/11/04 02:36:44;;;;;;;4.60;1.00;;;;;;;8.16;88.21;94630.81;4943753;29;20193;-82
2022/11/04 02:39:34;;;;;;;3.30;1.10;;;;;;;8.20;87.89;94614.81;4955195;29;20682;-83
2022/11/04 02:42:50;;;;;;;2.17;1.60;;;;;;;8.10;87.74;94628.84;4956258;29;20205;-82
2022/11/04 02:45:21;;;;;;;2.93;1.30;;;;;;;8.12;87.58;94635.47;4865048;29;20741;-83
2022/11/04 02:48:08;;;;;;;2.87;1.30;;;;;;;8.06;86.77;94627.53;4948215;29;20205;-83
2022/11/04 02:50:40;;;;;;;2.87;1.20;;;;;;;8.13;86.29;94620.78;4926019;29;20217;-82
2022/11/04 02:53:28;;;;;;;1.37;1.10;;;;;;;8.22;86.09;94649.13;4938507;29;20642;-83
2022/11/04 02:55:56;;;;;;;1.90;0.90;;;;;;;8.16;86.42;94654.09;4956997;29;20208;-82
2022/11/04 02:58:25;;;;;;;4.43;0.90;;;;;;;8.04;86.67;94644.97;4954326;29;20189;-83
2022/11/04 03:00:51;;;;;;;3.37;1.10;;;;;;;8.13;86.44;94642.28;4970950;28;20205;-83
2022/11/04 03:03:24;;;;;;;2.20;0.97;;;;;;;8.15;86.19;94648.09;4940714;29;20260;-82
2022/11/04 03:05:51;;;;;;;3.57;1.10;;;;;;;8.10;86.17;94639.97;4957250;28;20716;-83
2022/11/04 03:08:25;;;;;;;2.93;1.00;;;;;;;8.11;85.80;94641.59;4955244;29;20978;-83
2022/11/04 03:10:54;;;;;;;1.83;0.90;;;;;;;8.20;85.37;94638.09;4954628;28;20632;-82
2022/11/04 03:13:24;;;;;;;4.23;1.53;;;;;;;8.15;86.00;94642.94;4938054;29;20193;-82
2022/11/04 03:15:57;;;;;;;5.23;1.30;;;;;;;8.11;85.92;94657.13;4954723;29;20186;-83
2022/11/04 03:18:31;;;;;;;1.90;0.83;;;;;;;8.16;85.99;94660.06;4938449;29;20213;-82
2022/11/04 03:20:57;;;;;;;3.10;1.00;;;;;;;8.09;85.97;94647.91;4955825;29;20213;-83
2022/11/04 03:23:23;;;;;;;2.97;1.03;;;;;;;8.12;84.99;94643.22;4955792;29;20189;-82
2022/11/04 03:25:51;;;;;;;2.10;0.93;;;;;;;8.08;85.46;94641.13;4955597;29;20213;-82
2022/11/04 03:28:40;;;;;;;2.43;1.03;;;;;;;8.19;85.05;94644.22;4954031;29;20193;-82
2022/11/04 03:31:07;;;;;;;4.67;1.10;;;;;;;8.07;85.50;94655.00;4967975;28;20216;-82
2022/11/04 03:33:43;;;;;;;3.37;0.80;;;;;;;8.04;85.55;94666.47;4956545;29;20189;-82
2022/11/04 03:36:08;;;;;;;4.60;1.30;;;;;;;8.01;85.63;94669.34;4939627;29;20271;-82
2022/11/04 03:38:37;;;;;;;1.90;1.00;;;;;;;8.00;85.99;94670.31;4938783;29;20203;-82
2022/11/04 03:41:06;;;;;;;5.20;1.20;;;;;;;8.01;85.52;94664.19;4954732;29;20291;-82
2022/11/04 03:43:33;;;;;;;5.73;1.13;;;;;;;8.00;85.38;94675.50;4952040;28;20276;-83
2022/11/04 03:45:58;;;;;;;6.17;1.10;;;;;;;7.82;85.60;94685.06;4938716;29;20604;-82
2022/11/04 03:48:24;;;;;;;1.60;1.00;;;;;;;8.06;85.27;94685.22;4952238;29;20186;-83
2022/11/04 03:50:50;;;;;;;3.27;0.97;;;;;;;8.01;85.11;94692.63;4944002;29;20274;-82
2022/11/04 03:53:21;;;;;;;2.63;1.10;;;;;;;8.03;85.07;94693.28;4953268;29;20245;-83
2022/11/04 03:56:11;;;;;;;4.17;0.90;;;;;;;8.07;84.79;94696.38;4953103;29;20627;-82
2022/11/04 03:58:57;;;;;;;3.57;1.03;;;;;;;7.94;85.10;94692.41;4937508;29;20217;-82
2022/11/04 04:01:44;;;;;;;3.97;0.90;;;;;;;7.96;84.83;94676.78;4955245;29;20287;-83
2022/11/04 04:04:27;;;;;;;2.83;1.07;;;;;;;7.98;85.37;94672.25;4954851;29;20200;-82
2022/11/04 04:06:57;;;;;;;3.53;1.10;;;;;;;7.93;85.45;94677.06;4936960;29;20217;-83
2022/11/04 04:09:42;;;;;;;1.70;0.90;;;;;;;7.95;84.59;94677.72;4952601;29;20212;-83
2022/11/04 04:12:35;;;;;;;3.07;0.80;;;;;;;7.91;84.50;94681.56;4946262;29;20221;-82
2022/11/04 04:15:18;;;;;;;2.73;1.20;;;;;;;7.97;84.08;94686.16;4935487;29;20202;-83
2022/11/04 04:17:53;;;;;;;4.63;1.17;;;;;;;7.94;84.30;94683.84;4951322;29;20190;-81
2022/11/04 04:20:21;;;;;;;2.97;0.93;;;;;;;7.86;84.75;94676.88;4954442;29;20216;-81
2022/11/04 04:22:53;;;;;;;2.90;1.30;;;;;;;7.84;84.15;94683.94;4954658;29;20717;-82
2022/11/04 04:28:03;;;;;;;2.83;1.20;;;;;;;7.83;84.73;94684.91;4952792;29;20208;-81
2022/11/04 04:30:29;;;;;;;3.57;1.57;;;;;;;7.65;84.28;94674.63;4953426;28;20213;-81
2022/11/04 04:33:04;;;;;;;3.47;0.80;;;;;;;7.74;84.12;94685.00;4940728;29;20838;-82
2022/11/04 04:35:42;;;;;;;2.23;0.90;;;;;;;7.81;83.77;94686.03;4963459;29;20240;-82
2022/11/04 04:46:48;;;;;;;2.40;0.90;;;;;;;7.73;85.07;94686.78;4963942;29;20208;-84
2022/11/04 04:49:13;;;;;;;2.57;1.00;;;;;;;7.66;85.30;94678.00;4962035;29;20185;-83
2022/11/04 04:51:42;;;;;;;3.53;0.80;;;;;;;7.69;85.40;94676.91;4976908;28;20228;-84
2022/11/04 04:54:07;;;;;;;3.20;0.93;;;;;;;7.52;85.85;94687.13;4945603;29;20262;-84
2022/11/04 04:56:32;;;;;;;1.90;0.73;;;;;;;7.62;85.67;94682.69;4945213;29;20209;-83
2022/11/04 04:58:57;;;;;;;0.80;0.80;;;;;;;7.63;85.67;94676.56;4949972;29;20189;-82
2022/11/04 05:01:23;;;;;;;1.70;0.90;;;;;;;7.54;85.79;94668.88;4948265;29;20236;-83
2022/11/04 05:03:48;;;;;;;3.53;1.13;;;;;;;7.51;85.73;94659.69;4965341;29;20196;-83
2022/11/04 05:06:13;;;;;;;1.67;0.90;;;;;;;7.47;86.30;94647.19;4966216;29;20208;-83
2022/11/04 05:08:39;;;;;;;2.13;1.20;;;;;;;7.41;86.48;94638.25;4963104;29;20194;-83
2022/11/04 05:11:04;;;;;;;2.70;1.00;;;;;;;7.43;86.05;94636.38;4949683;29;20231;-83
2022/11/04 05:13:29;;;;;;;4.20;0.80;;;;;;;7.39;85.69;94624.69;4946688;29;20196;-83
2022/11/04 05:15:56;;;;;;;2.60;1.17;;;;;;;7.32;85.50;94618.50;4964869;29;20213;-83
2022/11/04 05:18:22;;;;;;;3.33;0.80;;;;;;;7.32;85.32;94615.91;4961402;29;20199;-83
2022/11/04 05:20:47;;;;;;;3.50;1.20;;;;;;;7.35;85.31;94610.47;4947453;29;20296;-83
2022/11/04 05:23:13;;;;;;;3.23;0.83;;;;;;;7.28;85.16;94601.69;4963712;29;20185;-83
2022/11/04 05:25:39;;;;;;;3.03;0.97;;;;;;;7.34;84.99;94598.53;4963896;29;20213;-83
2022/11/04 05:28:05;;;;;;;2.77;1.27;;;;;;;7.34;84.70;94601.91;4946927;29;20206;-82
2022/11/04 05:30:30;;;;;;;4.47;1.03;;;;;;;7.32;85.08;94603.81;4962633;29;20716;-82
2022/11/04 05:32:56;;;;;;;1.20;0.77;;;;;;;7.31;85.06;94603.97;4965753;28;20232;-83
2022/11/04 05:35:21;;;;;;;3.03;0.90;;;;;;;7.35;84.75;94611.28;4958269;28;20196;-82
2022/11/04 05:37:46;;;;;;;3.03;0.90;;;;;;;7.24;85.43;94615.84;4952281;29;20193;-85
2022/11/04 05:40:12;;;;;;;2.73;1.07;;;;;;;7.32;84.90;94614.16;4932449;29;20745;-85
2022/11/04 05:42:37;;;;;;;6.23;1.00;;;;;;;7.25;84.95;94633.00;4955208;29;20193;-85
2022/11/04 05:45:03;;;;;;;3.23;1.17;;;;;;;7.25;85.84;94638.16;4933808;29;20732;-85
2022/11/04 05:47:28;;;;;;;3.70;1.00;;;;;;;7.19;86.13;94642.16;4954469;29;20205;-86
2022/11/04 05:49:54;;;;;;;3.40;1.10;;;;;;;7.15;86.70;94647.75;4938505;29;20740;-86
2022/11/04 05:52:19;;;;;;;5.33;1.20;;;;;;;7.24;86.83;94650.25;4937360;29;20189;-85
2022/11/04 05:54:44;;;;;;;4.10;1.00;;;;;;;7.21;86.49;94660.06;4939132;29;20305;-85
2022/11/04 05:57:10;;;;;;;0.90;0.60;;;;;;;7.20;86.63;94655.88;4947924;29;20221;-85
2022/11/04 05:59:35;;;;;;;1.37;0.80;;;;;;;7.14;87.08;94659.84;4954097;29;20190;-84
2022/11/04 06:02:02;;;;;;;1.50;0.90;;;;;;;7.17;87.65;94656.97;4955152;29;20306;-84
2022/11/04 06:04:27;;;;;;;2.40;0.70;;;;;;;7.17;87.83;94656.16;4955851;29;20189;-86
2022/11/04 06:06:52;;;;;;;4.77;1.00;;;;;;;7.09;88.08;94646.59;4935265;29;20209;-86
2022/11/04 06:09:17;;;;;;;2.13;1.00;;;;;;;7.07;88.36;94644.16;4954836;28;20189;-84
2022/11/04 06:11:44;;;;;;;1.43;1.00;;;;;;;7.04;88.68;94641.84;4940357;29;20243;-86
2022/11/04 06:14:09;;;;;;;3.50;1.00;;;;;;;7.03;89.14;94635.06;4936822;29;20314;-85
2022/11/04 06:16:40;;;;;;;5.87;1.60;;;;;;;7.00;89.52;94639.72;4951474;29;20212;-87
2022/11/04 06:19:05;;;;;;;3.03;1.10;;;;;;;7.02;89.51;94642.97;4975344;28;20189;-84
2022/11/04 06:21:32;;;;;;;2.23;1.10;;;;;;;7.02;89.26;94637.81;4960480;28;20200;-84
2022/11/04 06:23:58;;;;;;;2.23;0.93;;;;;;;6.98;89.59;94636.47;4980383;28;21189;-83
2022/11/04 06:26:25;;;;;;;1.57;0.90;;;;;;;6.98;89.52;94639.88;4963547;28;20209;-84
2022/11/04 06:28:50;;;;;;;1.13;0.83;;;;;;;6.96;89.74;94644.34;4972220;28;20284;-83
2022/11/04 06:31:16;;;;;;;1.70;1.10;;;;;;;6.88;90.82;94639.13;4954068;29;20268;-83
2022/11/04 06:33:42;;;;;;;2.67;1.07;;;;;;;6.93;90.44;94634.34;4936320;29;20189;-83
2022/11/04 06:36:10;;;;;;;2.50;1.20;;;;;;;7.00;90.20;94650.88;4937053;29;20181;-84
2022/11/04 06:38:39;;;;;;;5.07;1.50;;;;;;;7.00;90.00;94660.38;4939142;29;20277;-83
2022/11/04 06:41:10;;;;;;;1.20;0.90;;;;;;;7.03;89.79;94671.22;4956114;28;20235;-85
2022/11/04 06:43:36;;;;;;;3.47;1.00;;;;;;;6.99;89.91;94669.88;4956028;29;20260;-84
2022/11/04 06:46:02;;;;;;;3.57;1.33;;;;;;;7.02;89.68;94674.75;4954254;28;20830;-82
2022/11/04 06:48:29;;;;;;;1.87;1.50;;;;;;;7.06;89.39;94678.66;4953367;29;20189;-84
2022/11/04 06:50:56;;;;;;;3.70;1.00;;;;;;;7.08;89.36;94675.94;4952505;28;20292;-84
2022/11/04 06:53:21;;;;;;;2.63;1.23;;;;;;;7.10;89.83;94676.59;4932866;29;20189;-81
2022/11/04 06:55:46;;;;;;;1.13;1.03;;;;;;;7.09;89.73;94664.66;4953869;29;20197;-81
2022/11/04 06:58:11;;;;;;;5.23;1.50;;;;;;;7.03;90.19;94667.81;4946052;29;21624;-85
2022/11/04 07:00:39;;;;;;;2.93;1.13;;;;;;;7.12;90.39;94676.44;4953113;29;20205;-85
2022/11/04 07:03:04;;;;;;;2.80;1.30;;;;;;;7.12;90.26;94668.69;4939591;29;20268;-86
2022/11/04 07:05:32;;;;;;;2.30;1.00;;;;;;;7.14;90.00;94680.50;4939313;29;20200;-86
2022/11/04 07:07:57;;;;;;;2.80;1.20;;;;;;;7.18;89.07;94676.69;4953546;29;20633;-85
2022/11/04 07:10:22;;;;;;;2.20;1.13;;;;;;;7.15;89.12;94673.56;4955245;29;20229;-85
2022/11/04 07:12:48;;;;;;;1.33;1.10;;;;;;;7.19;88.98;94680.88;4938272;29;20193;-86
2022/11/04 07:15:13;;;;;;;1.40;1.20;;;;;;;7.24;88.90;94681.22;4932986;29;20276;-84
2022/11/04 07:17:38;;;;;;;3.67;1.93;;;;;;;7.23;88.84;94679.59;4951382;29;20193;-83
2022/11/04 07:20:05;;;;;;;2.63;1.57;;;;;;;7.26;88.61;94681.91;4953790;28;20184;-84
2022/11/04 07:22:30;;;;;;;3.17;1.63;;;;;;;7.25;88.25;94674.31;4931723;29;20226;-83
2022/11/04 07:24:55;;;;;;;3.40;1.97;;;;;;;7.30;88.94;94672.09;4950952;29;20193;-84
2022/11/04 07:27:21;;;;;;;3.10;1.57;;;;;;;7.32;88.81;94665.81;4939118;29;20228;-85
2022/11/04 07:29:46;;;;;;;4.43;2.00;;;;;;;7.39;88.98;94668.59;4954061;29;20201;-84
2022/11/04 07:32:14;;;;;;;2.70;1.60;;;;;;;7.41;89.21;94664.09;4934990;29;20185;-83
2022/11/04 07:34:39;;;;;;;7.70;1.70;;;;;;;7.47;89.07;94668.69;4955533;29;20231;-86
2022/11/04 07:37:05;;;;;;;3.50;1.70;;;;;;;7.51;88.60;94657.09;4940543;29;20185;-85
2022/11/04 07:39:30;;;;;;;3.37;1.70;;;;;;;7.35;90.08;94652.63;4955936;29;20193;-85
2022/11/04 07:41:55;;;;;;;3.40;1.93;;;;;;;7.50;89.15;94650.28;4953151;29;20214;-85
2022/11/04 07:44:22;;;;;;;3.73;1.90;;;;;;;7.67;88.32;94652.00;4954391;29;20213;-86
2022/11/04 07:46:50;;;;;;;1.63;1.50;;;;;;;7.72;88.30;94650.75;4936417;29;20209;-86
2022/11/04 07:49:16;;;;;;;3.70;1.77;;;;;;;7.74;88.15;94644.47;4933956;29;20190;-84
2022/11/04 07:51:41;;;;;;;2.47;1.80;;;;;;;7.82;87.45;94643.72;4937688;29;20209;-85
2022/11/04 07:54:06;;;;;;;4.67;2.13;;;;;;;7.93;87.23;94633.09;4937365;29;20185;-86
2022/11/04 07:56:32;;;;;;;4.80;2.07;;;;;;;7.97;87.12;94636.22;4952560;29;20178;-86
2022/11/04 07:58:57;;;;;;;2.03;1.83;;;;;;;8.00;87.61;94634.13;4948635;29;20193;-85
2022/11/04 08:01:23;;;;;;;4.77;2.57;;;;;;;8.06;86.71;94636.09;4952603;29;20697;-85
2022/11/04 08:03:49;;;;;;;7.17;3.07;;;;;;;8.15;87.14;94642.13;4936203;29;20185;-82
2022/11/04 08:06:16;;;;;;;4.57;2.60;;;;;;;8.19;86.75;94627.91;4932757;29;20210;-86
2022/11/04 08:08:42;;;;;;;7.13;3.60;;;;;;;8.12;86.55;94632.06;4952912;29;20281;-83
2022/11/04 08:11:11;;;;;;;4.43;2.87;;;;;;;8.28;86.65;94621.78;4951618;28;20241;-84
2022/11/04 08:13:37;;;;;;;4.57;2.60;;;;;;;8.33;85.89;94618.75;4951796;29;20722;-85
2022/11/04 08:16:05;;;;;;;4.80;2.20;;;;;;;8.34;86.74;94622.97;4935365;29;20186;-86
2022/11/04 08:18:31;;;;;;;3.43;2.03;;;;;;;8.39;86.39;94623.31;4945681;29;20193;-85
2022/11/04 08:20:57;;;;;;;3.37;2.07;;;;;;;8.52;85.80;94623.69;4943737;29;20272;-85
2022/11/04 08:23:23;;;;;;;5.20;1.73;;;;;;;8.56;85.42;94621.59;4937997;29;20185;-84
2022/11/04 08:25:48;;;;;;;3.63;2.40;;;;;;;8.59;84.44;94613.53;4954279;29;20256;-85
2022/11/04 08:28:16;;;;;;;2.40;2.20;;;;;;;8.77;84.62;94611.63;4953404;29;20284;-85
2022/11/04 08:31:00;;;;;;;2.80;1.70;;;;;;;8.91;83.31;94608.41;4939082;29;20213;-85
2022/11/04 08:33:26;;;;;;;2.67;1.80;;;;;;;8.86;83.80;94612.44;4955827;29;20291;-86
2022/11/04 08:35:52;;;;;;;3.23;2.00;;;;;;;8.90;82.52;94605.97;4947754;29;20227;-85
2022/11/04 08:38:18;;;;;;;5.07;2.00;;;;;;;8.99;83.30;94608.41;4948100;29;20752;-85
2022/11/04 08:40:43;;;;;;;1.63;1.50;;;;;;;9.10;82.53;94617.66;4952322;29;20213;-86
2022/11/04 08:43:08;;;;;;;4.23;1.53;;;;;;;9.25;81.58;94615.22;4938805;29;20217;-85
2022/11/04 08:45:41;;;;;;;2.00;1.20;;;;;;;9.34;80.44;94615.06;4937476;29;20193;-84
2022/11/04 08:48:06;;;;;;;4.00;1.20;;;;;;;9.17;80.47;94617.81;4968267;28;20237;-85
2022/11/04 08:50:31;;;;;;;3.10;1.37;;;;;;;9.19;80.29;94619.28;4937278;29;20682;-85
2022/11/04 08:52:57;;;;;;;2.13;1.50;;;;;;;9.17;80.76;94617.81;4936930;29;20208;-85
2022/11/04 08:55:22;;;;;;;4.83;1.47;;;;;;;9.21;81.48;94622.53;4954084;29;20195;-85
2022/11/04 08:57:47;;;;;;;2.80;1.53;;;;;;;9.29;81.62;94630.28;4934411;29;20198;-83
2022/11/04 09:00:15;;;;;;;1.83;1.30;;;;;;;9.46;80.88;94625.91;4936350;29;20213;-85
2022/11/04 09:02:40;;;;;;;3.43;1.43;;;;;;;9.54;80.56;94625.06;4954411;29;20609;-85
2022/11/04 09:05:05;;;;;;;1.57;1.30;;;;;;;9.63;80.10;94626.72;4970582;28;20185;-85
2022/11/04 09:07:31;;;;;;;2.57;1.70;;;;;;;9.69;79.89;94628.63;4947707;29;20271;-83
2022/11/04 09:09:57;;;;;;;2.50;1.40;;;;;;;9.74;79.78;94634.16;4932609;29;20255;-85
2022/11/04 09:12:22;;;;;;;4.17;1.40;;;;;;;9.76;79.53;94639.16;4954612;29;20208;-85
2022/11/04 09:14:47;;;;;;;3.27;1.40;;;;;;;9.81;79.47;94634.31;4932662;29;20204;-85
2022/11/04 09:17:13;;;;;;;1.93;1.20;;;;;;;9.94;79.48;94653.56;4952262;29;20186;-84
2022/11/04 09:19:38;;;;;;;2.97;1.60;;;;;;;9.73;79.39;94655.88;4954190;29;20196;-86
2022/11/04 09:22:03;;;;;;;3.87;1.60;;;;;;;9.86;79.53;94661.34;4951471;29;20424;-84
2022/11/04 09:24:29;;;;;;;2.20;1.47;;;;;;;9.71;79.80;94668.16;4936334;29;20202;-85
2022/11/04 09:26:54;;;;;;;2.77;1.40;;;;;;;9.76;79.62;94672.88;4948378;29;20217;-85
2022/11/04 09:29:19;;;;;;;4.87;1.47;;;;;;;9.75;79.59;94679.84;4932467;29;20666;-83
2022/11/04 09:31:44;;;;;;;3.47;1.60;;;;;;;9.73;79.83;94683.56;4933915;29;20232;-84
2022/11/04 09:34:10;;;;;;;3.70;1.40;;;;;;;9.62;80.06;94685.50;4957615;29;20205;-84
2022/11/04 09:36:35;;;;;;;2.63;1.73;;;;;;;9.69;80.70;94682.25;4972467;29;20186;-85
2022/11/04 09:39:00;;;;;;;2.43;1.50;;;;;;;9.79;80.41;94680.31;4974774;28;20225;-83
2022/11/04 09:41:32;;;;;;;2.53;1.57;;;;;;;9.79;79.59;94673.34;4970171;28;20208;-83
2022/11/04 09:44:11;;;;;;;1.43;1.33;;;;;;;9.81;79.71;94668.00;4959136;29;20188;-84
2022/11/04 09:46:37;;;;;;;3.20;1.60;;;;;;;9.90;80.66;94678.22;4954299;29;20247;-85
2022/11/04 09:49:06;;;;;;;3.67;1.70;;;;;;;9.84;79.99;94686.63;4954788;29;20296;-84
2022/11/04 09:51:31;;;;;;;2.70;1.47;;;;;;;9.75;79.71;94690.22;4946689;29;20764;-85
2022/11/04 09:54:03;;;;;;;3.87;1.60;;;;;;;9.90;78.88;94692.97;4944164;29;20193;-84
2022/11/04 09:56:34;;;;;;;2.80;1.60;;;;;;;10.15;78.54;94686.72;4954013;28;20724;-85
2022/11/04 09:59:01;;;;;;;3.07;1.40;;;;;;;10.24;77.78;94686.75;4934767;29;20189;-85
2022/11/04 10:01:36;;;;;;;2.30;1.50;;;;;;;10.15;78.40;94680.72;4952717;29;20264;-85
2022/11/04 10:04:40;;;;;;;4.13;1.60;;;;;;;10.05;78.86;94670.53;4955827;29;20192;-86
2022/11/04 10:07:10;;;;;;;2.53;1.57;;;;;;;10.43;77.80;94674.22;4875326;29;20214;-84
2022/11/04 10:09:57;;;;;;;3.97;1.70;;;;;;;10.66;77.04;94673.47;4870991;29;20211;-83
2022/11/04 10:12:45;;;;;;;3.40;1.43;;;;;;;10.75;76.74;94673.25;4879513;29;20306;-83
2022/11/04 10:15:16;;;;;;;4.60;1.60;;;;;;;10.85;76.15;94667.84;4873271;29;20258;-85
2022/11/04 10:18:10;;;;;;;2.73;1.37;;;;;;;10.67;76.89;94664.69;4885953;29;20199;-85
2022/11/04 10:21:09;;;;;;;3.17;1.40;;;;;;;11.07;75.23;94672.28;4855361;29;20204;-84
2022/11/04 10:23:44;;;;;;;3.07;1.43;;;;;;;11.21;75.72;94657.72;4869794;29;20665;-85
2022/11/04 10:26:18;;;;;;;2.70;1.30;;;;;;;11.08;75.62;94660.09;4833905;29;20212;-85
2022/11/04 10:28:48;;;;;;;1.63;1.20;;;;;;;10.73;75.97;94664.81;4864595;29;20534;-85
2022/11/04 10:31:14;;;;;;;7.73;1.60;;;;;;;11.03;75.52;94650.19;4883847;29;20727;-85
2022/11/04 10:34:02;;;;;;;4.87;1.53;;;;;;;10.99;74.83;94654.13;4871651;29;20315;-86
2022/11/04 10:36:27;;;;;;;3.13;1.40;;;;;;;11.05;75.24;94647.47;4875214;29;20192;-85
2022/11/04 10:38:54;;;;;;;1.80;1.00;;;;;;;10.96;74.28;94649.28;4945289;29;20274;-85
2022/11/04 10:41:23;;;;;;;5.00;1.30;;;;;;;10.95;75.72;94649.44;4935886;29;20752;-85
2022/11/04 10:44:19;;;;;;;3.03;1.30;;;;;;;10.60;75.69;94649.00;4956175;29;20244;-86
2022/11/04 10:46:58;;;;;;;4.10;1.40;;;;;;;10.99;75.06;94653.31;4954255;29;20215;-85
2022/11/04 10:49:39;;;;;;;3.33;1.30;;;;;;;10.94;74.97;94655.63;4927712;29;20241;-85
2022/11/04 10:52:05;;;;;;;3.40;1.10;;;;;;;10.68;75.28;94655.91;4955520;29;20236;-85
2022/11/04 10:54:37;;;;;;;3.07;1.00;;;;;;;10.78;75.13;94643.56;4953536;29;20184;-85
2022/11/04 10:57:03;;;;;;;5.97;1.20;;;;;;;10.85;74.87;94652.25;4940706;29;20288;-86
2022/11/04 10:59:31;;;;;;;3.47;1.10;;;;;;;10.90;74.70;94647.38;4942196;29;20190;-83
2022/11/04 11:02:01;;;;;;;4.83;1.43;;;;;;;11.02;74.57;94648.59;4957586;29;20670;-83
2022/11/04 11:04:34;;;;;;;5.07;1.20;;;;;;;11.02;73.92;94645.19;4958398;28;20663;-83
2022/11/04 11:07:02;;;;;;;2.63;1.40;;;;;;;11.19;73.93;94643.28;4954967;29;20618;-82
2022/11/04 11:09:29;;;;;;;3.47;1.40;;;;;;;11.32;73.48;94646.94;4953274;29;20237;-81
2022/11/04 11:12:05;;;;;;;5.20;1.57;;;;;;;11.24;74.17;94643.59;4938709;29;20225;-83
2022/11/04 11:14:33;;;;;;;3.73;1.50;;;;;;;10.99;74.99;94646.34;4940236;29;20192;-83
2022/11/04 11:17:14;;;;;;;3.37;1.60;;;;;;;10.96;74.88;94646.69;4956908;29;20185;-83
2022/11/04 11:19:54;;;;;;;3.57;1.83;;;;;;;10.98;76.05;94639.53;4956708;29;20218;-83
2022/11/04 11:22:39;;;;;;;3.93;1.23;;;;;;;11.09;75.65;94638.31;4963031;28;20197;-83
2022/11/04 11:25:23;;;;;;;4.93;1.40;;;;;;;11.13;76.10;94636.19;4939073;29;20373;-83
2022/11/04 11:27:51;;;;;;;3.37;1.63;;;;;;;11.37;75.34;94638.59;4940307;29;20247;-82
2022/11/04 11:30:23;;;;;;;6.70;1.43;;;;;;;11.42;74.53;94644.09;4941373;29;20224;-83
2022/11/04 11:32:54;;;;;;;5.50;1.33;;;;;;;11.00;76.82;94641.97;4953150;29;20200;-83
2022/11/04 11:35:21;;;;;;;3.53;1.37;;;;;;;10.78;76.59;94635.75;4956461;28;20193;-81
2022/11/04 11:37:47;;;;;;;6.47;2.10;;;;;;;10.38;78.54;94640.16;4953208;29;20190;-82
2022/11/04 11:40:36;;;;;;;6.30;2.00;;;;;;;10.57;79.60;94641.53;4952776;28;20205;-81
2022/11/04 11:43:03;;;;;;;7.20;1.87;;;;;;;10.49;81.43;94637.19;4938712;29;20696;-83
2022/11/04 11:45:29;;;;;;;3.77;1.60;;;;;;;10.26;81.51;94632.91;4937737;29;20236;-82
2022/11/04 11:47:55;;;;;;;3.60;1.20;;;;;;;10.15;80.93;94615.88;4951742;29;20221;-82
2022/11/04 11:50:33;;;;;;;2.43;1.23;;;;;;;10.02;82.81;94620.78;4937839;29;20217;-83
2022/11/04 11:53:13;;;;;;;2.50;1.00;;;;;;;10.24;81.53;94612.31;4952411;29;20185;-82
2022/11/04 11:55:42;;;;;;;3.87;1.07;;;;;;;10.20;83.42;94617.00;4949767;29;20681;-82
2022/11/04 11:58:45;;;;;;;3.53;1.03;;;;;;;10.19;81.84;94610.19;4946970;29;20545;-80
2022/11/04 12:01:17;;;;;;;1.13;0.80;;;;;;;10.35;82.47;94606.75;4926012;29;20259;-80
2022/11/04 12:03:48;;;;;;;3.30;1.27;;;;;;;10.52;82.20;94609.28;4955382;29;20252;-80
2022/11/04 12:06:29;;;;;;;4.17;1.20;;;;;;;10.61;82.45;94616.06;4949423;28;20689;-81
2022/11/04 12:09:11;;;;;;;1.87;1.00;;;;;;;10.58;82.69;94613.78;4951948;29;20294;-80
2022/11/04 12:11:49;;;;;;;3.70;1.17;;;;;;;10.63;82.39;94611.50;4950248;29;20245;-82
2022/11/04 12:14:49;;;;;;;4.07;1.10;;;;;;;10.47;83.31;94609.78;4938216;29;20613;-82
2022/11/04 12:17:34;;;;;;;4.03;1.30;;;;;;;10.44;83.32;94610.13;4937622;29;20267;-82
2022/11/04 12:20:28;;;;;;;5.97;1.30;;;;;;;10.49;83.74;94618.19;4950278;29;20218;-81
2022/11/04 12:23:07;;;;;;;2.70;1.10;;;;;;;10.48;82.71;94612.22;4953272;28;20673;-82
2022/11/04 12:25:49;;;;;;;1.27;0.97;;;;;;;10.51;82.12;94613.66;4950894;29;20280;-82
2022/11/04 12:28:28;;;;;;;3.27;1.40;;;;;;;10.70;82.80;94613.25;4931358;29;20196;-82